createdAt,value
2019-01-13T00:00:39.965Z,4.10
2019-01-13T00:03:08.357Z,4.10
2019-01-13T00:05:36.745Z,4.10
2019-01-13T00:08:05.998Z,4.10
2019-01-13T00:10:34.389Z,4.20
2019-01-13T00:13:02.945Z,4.10
2019-01-13T00:15:31.334Z,4.20
2019-01-13T00:18:19.128Z,4.20
2019-01-13T00:20:47.550Z,4.20
2019-01-13T00:23:15.937Z,4.30
2019-01-13T00:25:44.357Z,4.30
2019-01-13T00:28:13.017Z,4.40
2019-01-13T00:30:41.402Z,4.50
2019-01-13T00:33:09.789Z,4.60
2019-01-13T00:35:38.253Z,4.70
2019-01-13T00:38:06.718Z,4.80
2019-01-13T00:40:54.453Z,4.90
2019-01-13T00:43:22.857Z,5.00
2019-01-13T00:45:51.528Z,5.00
2019-01-13T00:48:19.913Z,5.10
2019-01-13T00:50:48.302Z,5.10
2019-01-13T00:53:16.706Z,5.10
2019-01-13T00:55:45.088Z,5.20
2019-01-13T00:58:13.497Z,5.20
2019-01-13T01:00:42.211Z,5.20
2019-01-13T01:03:10.660Z,5.30
2019-01-13T01:05:39.041Z,5.30
2019-01-13T01:08:07.864Z,5.30
2019-01-13T01:10:36.718Z,5.30
2019-01-13T01:13:05.181Z,5.30
2019-01-13T01:15:34.020Z,5.30
2019-01-13T01:18:02.408Z,5.30
2019-01-13T01:20:50.281Z,5.40
2019-01-13T01:23:18.673Z,5.40
2019-01-13T01:25:47.057Z,5.40
2019-01-13T01:28:15.457Z,5.40
2019-01-13T01:30:43.849Z,5.40
2019-01-13T01:33:12.245Z,5.40
2019-01-13T01:35:40.629Z,5.50
2019-01-13T01:38:09.028Z,5.50
2019-01-13T01:40:37.421Z,5.50
2019-01-13T01:43:05.827Z,5.60
2019-01-13T01:45:34.215Z,5.60
2019-01-13T01:48:02.597Z,5.60
2019-01-13T01:50:30.988Z,5.70
2019-01-13T01:52:59.384Z,5.70
2019-01-13T01:55:27.777Z,5.70
2019-01-13T01:57:56.162Z,5.70
2019-01-13T02:00:24.909Z,5.60
2019-01-13T02:02:53.433Z,5.70
2019-01-13T02:05:21.818Z,5.60
2019-01-13T02:07:50.454Z,5.60
2019-01-13T02:10:19.777Z,5.60
2019-01-13T02:12:48.821Z,5.60
2019-01-13T02:15:23.048Z,5.60
2019-01-13T02:17:51.807Z,5.60
2019-01-13T02:20:21.243Z,5.60
2019-01-13T02:22:49.910Z,5.70
2019-01-13T02:25:21.016Z,5.70
2019-01-13T02:27:49.407Z,5.70
2019-01-13T02:30:20.704Z,5.80
2019-01-13T02:32:49.154Z,5.80
2019-01-13T02:35:17.609Z,5.80
2019-01-13T02:37:46.077Z,5.70
2019-01-13T02:40:16.806Z,5.80
2019-01-13T02:42:45.248Z,5.70
2019-01-13T02:45:16.300Z,5.70
2019-01-13T02:47:44.706Z,5.70
2019-01-13T02:50:13.724Z,5.70
2019-01-13T02:52:42.282Z,5.60
2019-01-13T02:55:11.156Z,5.60
2019-01-13T02:57:39.965Z,5.50
2019-01-13T03:00:22.649Z,5.40
2019-01-13T03:02:51.115Z,5.40
2019-01-13T03:05:19.566Z,5.30
2019-01-13T03:07:47.965Z,5.30
2019-01-13T03:10:18.724Z,5.20
2019-01-13T03:12:47.161Z,5.20
2019-01-13T03:15:19.911Z,5.10
2019-01-13T03:17:48.765Z,5.10
2019-01-13T03:20:17.391Z,5.10
2019-01-13T03:22:46.440Z,5.20
2019-01-13T03:25:17.084Z,5.10
2019-01-13T03:27:45.465Z,5.20
2019-01-13T03:30:16.823Z,5.30
2019-01-13T03:32:45.267Z,5.30
2019-01-13T03:35:14.320Z,5.40
2019-01-13T03:37:42.777Z,5.40
2019-01-13T03:40:14.838Z,5.50
2019-01-13T03:42:43.229Z,5.50
2019-01-13T03:45:12.052Z,5.50
2019-01-13T03:47:40.493Z,5.60
2019-01-13T03:50:12.324Z,5.60
2019-01-13T03:52:40.724Z,5.60
2019-01-13T03:55:10.150Z,5.50
2019-01-13T03:57:57.881Z,5.60
2019-01-13T04:00:26.548Z,5.60
2019-01-13T04:02:55.071Z,5.70
2019-01-13T04:05:23.605Z,5.70
2019-01-13T04:07:52.141Z,5.80
2019-01-13T04:10:20.645Z,5.80
2019-01-13T04:12:49.072Z,5.90
2019-01-13T04:15:29.584Z,5.90
2019-01-13T04:17:59.304Z,5.90
2019-01-13T04:20:27.695Z,6.00
2019-01-13T04:22:56.219Z,6.00
2019-01-13T04:25:24.681Z,6.00
2019-01-13T04:27:53.065Z,6.10
2019-01-13T04:30:21.698Z,6.10
2019-01-13T04:32:50.106Z,6.10
2019-01-13T04:35:18.514Z,6.20
2019-01-13T04:37:46.882Z,6.20
2019-01-13T04:40:15.265Z,6.10
2019-01-13T04:42:43.656Z,6.20
2019-01-13T04:45:12.869Z,6.20
2019-01-13T04:47:41.283Z,6.20
2019-01-13T04:50:14.421Z,6.20
2019-01-13T04:52:42.982Z,6.20
2019-01-13T04:55:11.790Z,6.20
2019-01-13T04:57:40.234Z,6.20
2019-01-13T05:00:14.478Z,6.30
2019-01-13T05:02:42.955Z,6.30
2019-01-13T05:05:11.408Z,6.20
2019-01-13T05:07:39.853Z,6.30
2019-01-13T05:10:11.461Z,6.30
2019-01-13T05:12:40.221Z,6.30
2019-01-13T05:15:08.961Z,6.30
2019-01-13T05:17:37.591Z,6.30
2019-01-13T05:20:09.186Z,6.30
2019-01-13T05:22:42.713Z,6.30
2019-01-13T05:25:11.240Z,6.30
2019-01-13T05:27:39.709Z,6.20
2019-01-13T05:30:14.188Z,6.20
2019-01-13T05:32:42.661Z,6.20
2019-01-13T05:35:11.182Z,6.10
2019-01-13T05:37:39.817Z,6.20
2019-01-13T05:40:11.541Z,6.10
2019-01-13T05:42:39.926Z,6.10
2019-01-13T05:45:10.757Z,6.20
2019-01-13T05:47:39.223Z,6.10
2019-01-13T05:50:10.857Z,6.20
2019-01-13T05:52:40.114Z,6.20
2019-01-13T05:55:09.157Z,6.30
2019-01-13T05:57:37.553Z,6.30
2019-01-13T06:00:09.037Z,6.40
2019-01-13T06:02:37.421Z,6.40
2019-01-13T06:05:07.148Z,6.40
2019-01-13T06:07:35.549Z,6.40
2019-01-13T06:10:07.141Z,6.40
2019-01-13T06:12:35.526Z,6.50
2019-01-13T06:15:05.865Z,6.40
2019-01-13T06:17:34.321Z,6.40
2019-01-13T06:20:02.738Z,6.40
2019-01-13T06:22:31.121Z,6.50
2019-01-13T06:24:59.525Z,6.50
2019-01-13T06:27:27.913Z,6.40
2019-01-13T06:29:56.296Z,6.50
2019-01-13T06:32:24.844Z,6.40
2019-01-13T06:34:53.288Z,6.40
2019-01-13T06:37:21.674Z,6.40
2019-01-13T06:39:50.649Z,6.40
2019-01-13T06:42:19.034Z,6.30
2019-01-13T06:44:47.717Z,6.30
2019-01-13T06:47:16.101Z,6.20
2019-01-13T06:49:44.481Z,6.20
2019-01-13T06:52:12.953Z,6.20
2019-01-13T06:54:41.333Z,6.20
2019-01-13T06:57:09.729Z,6.20
2019-01-13T06:59:38.117Z,6.20
2019-01-13T07:02:06.705Z,6.20
2019-01-13T07:04:35.153Z,6.20
2019-01-13T07:07:03.541Z,6.20
2019-01-13T07:09:31.973Z,6.20
2019-01-13T07:12:00.381Z,6.20
2019-01-13T07:14:29.077Z,6.20
2019-01-13T07:16:57.461Z,6.10
2019-01-13T07:19:25.858Z,6.10
2019-01-13T07:21:54.257Z,6.10
2019-01-13T07:24:22.645Z,6.00
2019-01-13T07:26:51.053Z,6.00
2019-01-13T07:29:19.441Z,6.00
2019-01-13T07:31:47.842Z,6.00
2019-01-13T07:34:16.221Z,6.00
2019-01-13T07:36:44.616Z,5.90
2019-01-13T07:39:13.009Z,5.90
2019-01-13T07:41:41.407Z,5.90
2019-01-13T07:44:10.039Z,5.90
2019-01-13T07:46:38.417Z,5.90
2019-01-13T07:49:06.801Z,5.90
2019-01-13T07:51:35.198Z,5.90
2019-01-13T07:54:03.581Z,5.90
2019-01-13T07:56:31.977Z,5.90
2019-01-13T07:59:00.393Z,5.90
2019-01-13T08:01:28.785Z,5.80
2019-01-13T08:03:57.179Z,5.80
2019-01-13T08:06:25.642Z,5.80
2019-01-13T08:08:54.038Z,5.80
2019-01-13T08:11:22.421Z,5.80
2019-01-13T08:13:50.810Z,5.80
2019-01-13T08:16:19.210Z,5.70
2019-01-13T08:18:47.803Z,5.70
2019-01-13T08:21:16.185Z,5.70
2019-01-13T08:23:44.570Z,5.60
2019-01-13T08:26:12.965Z,5.60
2019-01-13T08:28:41.358Z,5.50
2019-01-13T08:31:10.117Z,5.50
2019-01-13T08:33:38.517Z,5.40
2019-01-13T08:36:06.970Z,5.40
2019-01-13T08:38:35.370Z,5.40
2019-01-13T08:41:03.767Z,5.50
2019-01-13T08:43:32.165Z,5.40
2019-01-13T08:46:00.554Z,5.40
2019-01-13T08:48:29.003Z,5.40
2019-01-13T08:50:57.654Z,5.40
2019-01-13T08:53:26.034Z,5.40
2019-01-13T08:55:54.444Z,5.30
2019-01-13T08:58:22.841Z,5.30
2019-01-13T09:00:51.230Z,5.30
2019-01-13T09:03:19.629Z,5.30
2019-01-13T09:05:48.024Z,5.20
2019-01-13T09:08:17.550Z,5.20
2019-01-13T09:10:45.965Z,5.20
2019-01-13T09:13:14.443Z,5.20
2019-01-13T09:15:42.838Z,5.20
2019-01-13T09:18:11.289Z,5.20
2019-01-13T09:20:59.118Z,5.20
2019-01-13T09:23:27.546Z,5.20
2019-01-13T09:25:55.945Z,5.10
2019-01-13T09:28:24.329Z,5.10
2019-01-13T09:30:52.821Z,5.10
2019-01-13T09:33:21.227Z,5.10
2019-01-13T09:35:49.612Z,5.10
2019-01-13T09:38:18.010Z,5.10
2019-01-13T09:40:46.397Z,5.10
2019-01-13T09:43:14.805Z,5.10
2019-01-13T09:45:43.193Z,5.10
2019-01-13T09:48:11.583Z,5.10
2019-01-13T09:50:39.982Z,5.10
2019-01-13T09:53:08.369Z,5.10
2019-01-13T09:55:36.756Z,5.10
2019-01-13T09:58:05.325Z,5.10
2019-01-13T10:00:34.448Z,5.00
2019-01-13T10:03:03.082Z,5.00
2019-01-13T10:05:31.478Z,5.00
2019-01-13T10:08:00.018Z,5.00
2019-01-13T10:10:28.417Z,5.00
2019-01-13T10:12:56.808Z,5.00
2019-01-13T10:15:26.345Z,5.00
2019-01-13T10:17:54.801Z,5.00
2019-01-13T10:20:23.481Z,5.00
2019-01-13T10:22:51.876Z,5.00
2019-01-13T10:25:20.321Z,5.00
2019-01-13T10:27:48.796Z,5.00
2019-01-13T10:30:20.550Z,5.00
2019-01-13T10:32:54.761Z,5.00
2019-01-13T10:35:19.190Z,5.10
2019-01-13T10:37:47.586Z,5.10
2019-01-13T10:40:21.616Z,5.10
2019-01-13T10:42:50.006Z,5.10
2019-01-13T10:45:18.641Z,5.10
2019-01-13T10:47:55.548Z,5.20
2019-01-13T10:50:28.126Z,5.20
2019-01-13T10:52:58.614Z,5.20
2019-01-13T10:55:27.014Z,5.20
2019-01-13T10:57:55.393Z,5.20
2019-01-13T11:00:26.364Z,5.20
2019-01-13T11:03:01.771Z,5.20
2019-01-13T11:05:24.897Z,5.20
2019-01-13T11:07:54.237Z,5.20
2019-01-13T11:10:22.625Z,5.20
2019-01-13T11:12:51.041Z,5.20
2019-01-13T11:15:21.873Z,5.20
2019-01-13T11:17:49.845Z,5.30
2019-01-13T11:20:21.049Z,5.30
2019-01-13T11:22:49.430Z,5.30
2019-01-13T11:25:17.973Z,5.30
2019-01-13T11:27:46.737Z,5.30
2019-01-13T11:30:23.518Z,5.40
2019-01-13T11:32:52.091Z,5.30
2019-01-13T11:35:20.474Z,5.30
2019-01-13T11:37:49.122Z,5.30
2019-01-13T11:40:22.729Z,5.30
2019-01-13T11:42:51.173Z,5.30
2019-01-13T11:45:19.708Z,5.30
2019-01-13T11:47:48.097Z,5.30
2019-01-13T11:50:19.577Z,5.30
2019-01-13T11:52:48.297Z,5.30
2019-01-13T11:55:17.828Z,5.30
2019-01-13T11:57:46.633Z,5.30
2019-01-13T12:00:18.000Z,5.30
2019-01-13T12:02:46.561Z,5.30
2019-01-13T12:05:15.893Z,5.40
2019-01-13T12:07:44.938Z,5.40
2019-01-13T12:10:16.246Z,5.30
2019-01-13T12:12:44.850Z,5.30
2019-01-13T12:15:15.549Z,5.30
2019-01-13T12:17:44.209Z,5.30
2019-01-13T12:20:15.338Z,5.30
2019-01-13T12:22:43.899Z,5.30
2019-01-13T12:25:14.921Z,5.30
2019-01-13T12:27:43.386Z,5.30
2019-01-13T12:30:14.850Z,5.30
2019-01-13T12:32:43.248Z,5.40
2019-01-13T12:35:11.633Z,5.30
2019-01-13T12:37:40.026Z,5.40
2019-01-13T12:40:11.506Z,5.40
2019-01-13T12:42:39.890Z,5.40
2019-01-13T12:45:11.253Z,5.50
2019-01-13T12:47:40.868Z,5.50
2019-01-13T12:50:26.713Z,5.50
2019-01-13T12:52:55.128Z,5.60
2019-01-13T12:55:23.650Z,5.60
2019-01-13T12:57:52.034Z,5.70
2019-01-13T13:00:24.115Z,5.70
2019-01-13T13:02:52.947Z,5.80
2019-01-13T13:05:21.346Z,6.00
2019-01-13T13:07:49.729Z,6.20
2019-01-13T13:10:24.509Z,6.60
2019-01-13T13:12:52.913Z,6.80
2019-01-13T13:15:21.318Z,7.10
2019-01-13T13:17:49.702Z,7.30
2019-01-13T13:20:18.479Z,7.50
2019-01-13T13:22:46.857Z,7.60
2019-01-13T13:25:15.597Z,7.70
2019-01-13T13:27:46.697Z,7.80
2019-01-13T13:30:23.550Z,7.90
2019-01-13T13:32:51.933Z,7.90
2019-01-13T13:35:20.662Z,8.00
2019-01-13T13:37:49.293Z,8.10
2019-01-13T13:40:22.912Z,8.20
2019-01-13T13:42:51.300Z,8.20
2019-01-13T13:45:20.116Z,8.20
2019-01-13T13:47:48.629Z,8.20
2019-01-13T13:50:22.283Z,8.30
2019-01-13T13:53:10.025Z,8.30
2019-01-13T13:55:38.416Z,8.30
2019-01-13T13:58:06.877Z,8.30
2019-01-13T14:00:36.833Z,8.40
2019-01-13T14:03:05.661Z,8.40
2019-01-13T14:05:34.048Z,8.40
2019-01-13T14:08:02.533Z,8.40
2019-01-13T14:10:34.073Z,8.40
2019-01-13T14:13:02.530Z,8.50
2019-01-13T14:15:30.918Z,8.50
2019-01-13T14:18:00.169Z,8.50
2019-01-13T14:20:28.713Z,8.50
2019-01-13T14:22:57.100Z,8.60
2019-01-13T14:25:25.490Z,8.60
2019-01-13T14:27:53.897Z,8.60
2019-01-13T14:30:24.633Z,8.60
2019-01-13T14:32:53.180Z,8.60
2019-01-13T14:35:21.658Z,8.60
2019-01-13T14:37:50.176Z,8.60
2019-01-13T14:40:20.839Z,8.60
2019-01-13T14:42:49.290Z,8.60
2019-01-13T14:45:19.847Z,8.50
2019-01-13T14:47:48.316Z,8.50
2019-01-13T14:50:18.792Z,8.40
2019-01-13T14:52:47.965Z,8.30
2019-01-13T14:55:16.497Z,8.30
2019-01-13T14:57:44.898Z,8.20
2019-01-13T15:00:24.730Z,8.10
2019-01-13T15:02:53.307Z,8.00
2019-01-13T15:05:21.994Z,8.00
2019-01-13T15:07:50.661Z,8.00
2019-01-13T15:10:21.449Z,7.90
2019-01-13T15:12:49.911Z,8.00
2019-01-13T15:15:18.291Z,7.90
2019-01-13T15:17:46.787Z,7.90
2019-01-13T15:20:17.129Z,7.90
2019-01-13T15:22:45.777Z,7.90
2019-01-13T15:25:17.271Z,7.90
2019-01-13T15:27:45.677Z,7.90
2019-01-13T15:30:20.174Z,8.00
2019-01-13T15:32:48.757Z,7.90
2019-01-13T15:35:17.142Z,8.00
2019-01-13T15:37:45.614Z,7.90
2019-01-13T15:40:16.241Z,7.90
2019-01-13T15:42:44.661Z,7.90
2019-01-13T15:45:15.208Z,7.90
2019-01-13T15:47:43.596Z,7.80
2019-01-13T15:50:20.545Z,7.80
2019-01-13T15:52:49.016Z,7.80
2019-01-13T15:55:18.116Z,7.80
2019-01-13T15:57:46.854Z,7.80
2019-01-13T16:00:23.749Z,7.80
2019-01-13T16:02:52.226Z,7.80
2019-01-13T16:05:20.600Z,7.80
2019-01-13T16:07:49.278Z,7.80
2019-01-13T16:10:20.206Z,7.90
2019-01-13T16:12:48.591Z,7.90
2019-01-13T16:15:17.120Z,7.90
2019-01-13T16:18:04.918Z,7.90
2019-01-13T16:20:35.268Z,7.90
2019-01-13T16:23:04.093Z,7.90
2019-01-13T16:25:32.481Z,7.90
2019-01-13T16:28:00.880Z,7.90
2019-01-13T16:30:31.401Z,8.00
2019-01-13T16:33:00.074Z,8.00
2019-01-13T16:35:28.469Z,8.00
2019-01-13T16:37:56.878Z,8.00
2019-01-13T16:40:25.533Z,8.10
2019-01-13T16:42:53.927Z,8.10
2019-01-13T16:45:22.809Z,8.10
2019-01-13T16:47:51.203Z,8.10
2019-01-13T16:50:23.850Z,8.10
2019-01-13T16:52:53.690Z,8.10
2019-01-13T16:55:22.725Z,8.10
2019-01-13T16:57:51.866Z,8.10
2019-01-13T17:00:22.204Z,8.10
2019-01-13T17:02:50.778Z,8.20
2019-01-13T17:05:20.401Z,8.20
2019-01-13T17:07:48.805Z,8.20
2019-01-13T17:10:22.527Z,8.20
2019-01-13T17:12:50.913Z,8.30
2019-01-13T17:15:21.558Z,8.30
2019-01-13T17:17:49.937Z,8.40
2019-01-13T17:20:22.553Z,8.40
2019-01-13T17:22:51.005Z,8.40
2019-01-13T17:25:21.753Z,8.50
2019-01-13T17:27:50.222Z,8.50
2019-01-13T17:30:21.728Z,8.60
2019-01-13T17:32:50.155Z,8.60
2019-01-13T17:35:18.738Z,8.60
2019-01-13T17:37:47.198Z,8.60
2019-01-13T17:40:20.518Z,8.60
2019-01-13T17:42:48.902Z,8.60
2019-01-13T17:45:22.430Z,8.50
2019-01-13T17:47:51.353Z,8.60
2019-01-13T17:50:21.578Z,8.50
2019-01-13T17:52:50.120Z,8.60
2019-01-13T17:55:20.141Z,8.60
2019-01-13T17:57:48.605Z,8.60
2019-01-13T18:00:31.913Z,8.60
2019-01-13T18:03:02.958Z,8.60
2019-01-13T18:05:31.344Z,8.60
2019-01-13T18:08:00.033Z,8.70
2019-01-13T18:10:28.443Z,8.70
2019-01-13T18:12:56.820Z,8.70
2019-01-13T18:15:25.236Z,8.80
2019-01-13T18:17:53.618Z,8.80
2019-01-13T18:20:23.146Z,8.70
2019-01-13T18:22:51.623Z,8.70
2019-01-13T18:25:20.008Z,8.70
2019-01-13T18:27:48.397Z,8.70
2019-01-13T18:30:22.350Z,8.60
2019-01-13T18:32:50.754Z,8.60
2019-01-13T18:35:20.876Z,8.60
2019-01-13T18:37:49.321Z,8.60
2019-01-13T18:40:19.669Z,8.60
2019-01-13T18:42:48.052Z,8.60
2019-01-13T18:45:16.856Z,8.60
2019-01-13T18:47:45.301Z,8.60
2019-01-13T18:50:16.033Z,8.60
2019-01-13T18:52:47.274Z,8.60
2019-01-13T18:55:15.809Z,8.70
2019-01-13T18:57:44.197Z,8.70
2019-01-13T19:00:21.101Z,8.70
2019-01-13T19:02:49.633Z,8.70
2019-01-13T19:05:20.469Z,8.80
2019-01-13T19:07:48.937Z,8.80
2019-01-13T19:10:32.233Z,8.80
2019-01-13T19:13:06.385Z,8.90
2019-01-13T19:15:34.783Z,8.90
2019-01-13T19:18:03.172Z,8.90
2019-01-13T19:20:32.114Z,9.00
2019-01-13T19:23:00.849Z,9.00
2019-01-13T19:25:29.254Z,9.10
2019-01-13T19:27:57.723Z,9.10
2019-01-13T19:30:26.174Z,9.10
2019-01-13T19:32:54.573Z,9.10
2019-01-13T19:35:23.322Z,9.10
2019-01-13T19:37:51.718Z,9.10
2019-01-13T19:40:20.097Z,9.10
2019-01-13T19:42:48.494Z,9.10
2019-01-13T19:45:19.342Z,9.10
2019-01-13T19:47:48.032Z,9.10
2019-01-13T19:50:19.075Z,9.20
2019-01-13T19:52:47.702Z,9.10
2019-01-13T19:55:17.230Z,9.20
2019-01-13T19:57:45.826Z,9.20
2019-01-13T20:00:20.913Z,9.20
2019-01-13T20:02:49.510Z,9.10
2019-01-13T20:05:17.989Z,9.10
2019-01-13T20:07:46.382Z,9.00
2019-01-13T20:10:15.226Z,8.90
2019-01-13T20:12:43.680Z,8.80
2019-01-13T20:15:16.777Z,8.70
2019-01-13T20:17:45.235Z,8.60
2019-01-13T20:20:15.764Z,8.50
2019-01-13T20:22:44.550Z,8.50
2019-01-13T20:25:33.813Z,8.40
2019-01-13T20:28:02.672Z,8.40
2019-01-13T20:30:33.194Z,8.40
2019-01-13T20:33:06.113Z,8.40
2019-01-13T20:35:34.516Z,8.30
2019-01-13T20:38:02.901Z,8.30
2019-01-13T20:40:31.562Z,8.30
2019-01-13T20:42:59.942Z,8.30
2019-01-13T20:45:34.056Z,8.30
2019-01-13T20:48:02.454Z,8.20
2019-01-13T20:50:30.849Z,8.20
2019-01-13T20:52:59.237Z,8.20
2019-01-13T20:55:27.638Z,8.20
2019-01-13T20:57:56.027Z,8.20
2019-01-13T21:00:28.457Z,8.20
2019-01-13T21:02:56.873Z,8.20
2019-01-13T21:05:26.931Z,8.00
2019-01-13T21:07:55.736Z,7.80
2019-01-13T21:10:24.398Z,7.50
2019-01-13T21:12:53.065Z,7.30
2019-01-13T21:15:27.216Z,7.30
2019-01-13T21:17:57.758Z,7.20
2019-01-13T21:20:25.800Z,7.20
2019-01-13T21:22:54.352Z,7.30
2019-01-13T21:25:22.761Z,7.30
2019-01-13T21:27:51.419Z,7.30
2019-01-13T21:30:28.121Z,7.40
2019-01-13T21:32:56.580Z,7.50
2019-01-13T21:35:24.952Z,7.50
2019-01-13T21:37:53.449Z,7.50
2019-01-13T21:40:21.855Z,7.50
2019-01-13T21:42:50.250Z,7.50
2019-01-13T21:45:20.701Z,7.50
2019-01-13T21:47:49.093Z,7.50
2019-01-13T21:50:25.437Z,7.60
2019-01-13T21:52:54.381Z,7.60
2019-01-13T21:55:22.953Z,7.60
2019-01-13T21:57:51.422Z,7.70
2019-01-13T22:00:24.703Z,7.70
2019-01-13T22:02:53.475Z,7.70
2019-01-13T22:05:23.530Z,7.80
2019-01-13T22:07:52.036Z,7.80
2019-01-13T22:10:22.275Z,7.80
2019-01-13T22:12:50.734Z,7.80
2019-01-13T22:15:20.570Z,7.80
2019-01-13T22:17:49.093Z,7.80
2019-01-13T22:20:19.840Z,7.80
2019-01-13T22:22:48.237Z,7.80
2019-01-13T22:25:16.897Z,7.80
2019-01-13T22:27:45.297Z,7.80
2019-01-13T22:30:16.310Z,7.80
2019-01-13T22:32:44.777Z,7.80
2019-01-13T22:35:13.263Z,7.80
2019-01-13T22:37:41.725Z,7.80
2019-01-13T22:40:12.745Z,7.80
2019-01-13T22:42:41.222Z,7.70
2019-01-13T22:45:15.137Z,7.70
2019-01-13T22:47:43.529Z,7.70
2019-01-13T22:50:13.682Z,7.70
2019-01-13T22:52:42.061Z,7.70
2019-01-13T22:55:12.005Z,7.70
2019-01-13T22:57:40.390Z,7.70
2019-01-13T23:00:48.489Z,7.70
2019-01-13T23:03:16.877Z,7.70
2019-01-13T23:05:45.262Z,7.70
2019-01-13T23:08:13.904Z,7.70
2019-01-13T23:10:42.284Z,7.70
2019-01-13T23:13:10.669Z,7.70
2019-01-13T23:15:39.078Z,7.60
2019-01-13T23:18:07.465Z,7.60
2019-01-13T23:20:35.911Z,7.50
2019-01-13T23:23:04.401Z,7.40
2019-01-13T23:25:32.802Z,7.20
2019-01-13T23:28:01.229Z,7.10
2019-01-13T23:30:29.610Z,7.00
2019-01-13T23:32:58.005Z,6.80
2019-01-13T23:35:26.409Z,6.70
2019-01-13T23:37:54.785Z,6.50
2019-01-13T23:40:23.171Z,6.30
2019-01-13T23:42:51.579Z,6.20
2019-01-13T23:45:19.963Z,6.20
2019-01-13T23:47:48.371Z,6.20
2019-01-13T23:50:16.754Z,6.20
2019-01-13T23:52:45.137Z,6.20
2019-01-13T23:55:14.302Z,6.30
2019-01-13T23:57:42.709Z,6.30
